sensor_id;sensor_type;location;lat;lon;timestamp;P1;durP1;ratioP1;P2;durP2;ratioP2
39738;SDS011;25422;48.286;8.484;2022-08-18T00:01:45;8.77;;;7.88;;
39738;SDS011;25422;48.286;8.484;2022-08-18T00:04:13;10.65;;;8.82;;
39738;SDS011;25422;48.286;8.484;2022-08-18T00:06:39;9.38;;;8.48;;
39738;SDS011;25422;48.286;8.484;2022-08-18T00:09:06;10.75;;;9.13;;
39738;SDS011;25422;48.286;8.484;2022-08-18T00:11:35;12.77;;;9.40;;
39738;SDS011;25422;48.286;8.484;2022-08-18T00:14:04;9.57;;;8.68;;
39738;SDS011;25422;48.286;8.484;2022-08-18T00:16:30;11.73;;;9.02;;
39738;SDS011;25422;48.286;8.484;2022-08-18T00:18:55;10.77;;;9.27;;
39738;SDS011;25422;48.286;8.484;2022-08-18T00:21:20;11.27;;;9.18;;
39738;SDS011;25422;48.286;8.484;2022-08-18T00:23:46;10.07;;;8.93;;
39738;SDS011;25422;48.286;8.484;2022-08-18T00:26:11;10.45;;;8.77;;
39738;SDS011;25422;48.286;8.484;2022-08-18T00:28:37;10.23;;;9.23;;
39738;SDS011;25422;48.286;8.484;2022-08-18T00:31:03;12.00;;;9.10;;
39738;SDS011;25422;48.286;8.484;2022-08-18T00:33:29;11.77;;;9.07;;
39738;SDS011;25422;48.286;8.484;2022-08-18T00:35:55;10.07;;;8.65;;
39738;SDS011;25422;48.286;8.484;2022-08-18T00:38:20;11.15;;;10.00;;
39738;SDS011;25422;48.286;8.484;2022-08-18T00:40:47;11.32;;;9.68;;
39738;SDS011;25422;48.286;8.484;2022-08-18T00:43:20;9.88;;;8.98;;
39738;SDS011;25422;48.286;8.484;2022-08-18T00:45:52;10.27;;;9.18;;
39738;SDS011;25422;48.286;8.484;2022-08-18T00:48:18;10.02;;;9.02;;
39738;SDS011;25422;48.286;8.484;2022-08-18T00:50:45;10.43;;;9.32;;
39738;SDS011;25422;48.286;8.484;2022-08-18T00:56:07;10.57;;;8.80;;
39738;SDS011;25422;48.286;8.484;2022-08-18T00:58:42;11.45;;;9.15;;
39738;SDS011;25422;48.286;8.484;2022-08-18T01:01:11;10.73;;;9.60;;
39738;SDS011;25422;48.286;8.484;2022-08-18T01:03:37;11.18;;;9.88;;
39738;SDS011;25422;48.286;8.484;2022-08-18T01:06:12;12.63;;;9.60;;
39738;SDS011;25422;48.286;8.484;2022-08-18T01:08:41;11.65;;;9.90;;
39738;SDS011;25422;48.286;8.484;2022-08-18T01:11:07;12.23;;;10.25;;
39738;SDS011;25422;48.286;8.484;2022-08-18T01:13:37;11.70;;;10.35;;
39738;SDS011;25422;48.286;8.484;2022-08-18T01:16:05;12.10;;;10.90;;
39738;SDS011;25422;48.286;8.484;2022-08-18T01:18:50;14.45;;;11.27;;
39738;SDS011;25422;48.286;8.484;2022-08-18T01:21:35;12.05;;;10.73;;
39738;SDS011;25422;48.286;8.484;2022-08-18T01:24:16;14.10;;;10.75;;
39738;SDS011;25422;48.286;8.484;2022-08-18T01:26:44;12.15;;;10.85;;
39738;SDS011;25422;48.286;8.484;2022-08-18T01:29:15;11.77;;;10.57;;
39738;SDS011;25422;48.286;8.484;2022-08-18T01:31:45;13.27;;;10.52;;
39738;SDS011;25422;48.286;8.484;2022-08-18T01:34:14;11.15;;;9.93;;
39738;SDS011;25422;48.286;8.484;2022-08-18T01:36:40;10.68;;;9.52;;
39738;SDS011;25422;48.286;8.484;2022-08-18T01:39:11;10.80;;;9.50;;
39738;SDS011;25422;48.286;8.484;2022-08-18T01:41:37;11.68;;;9.13;;
39738;SDS011;25422;48.286;8.484;2022-08-18T01:44:03;10.48;;;9.38;;
39738;SDS011;25422;48.286;8.484;2022-08-18T01:46:31;10.65;;;9.23;;
39738;SDS011;25422;48.286;8.484;2022-08-18T01:48:58;12.52;;;9.15;;
39738;SDS011;25422;48.286;8.484;2022-08-18T01:51:25;10.70;;;9.60;;
39738;SDS011;25422;48.286;8.484;2022-08-18T01:53:52;11.30;;;10.10;;
39738;SDS011;25422;48.286;8.484;2022-08-18T01:56:18;11.88;;;10.68;;
39738;SDS011;25422;48.286;8.484;2022-08-18T01:58:44;11.00;;;9.93;;
39738;SDS011;25422;48.286;8.484;2022-08-18T02:01:12;11.43;;;10.32;;
39738;SDS011;25422;48.286;8.484;2022-08-18T02:03:40;11.15;;;10.05;;
39738;SDS011;25422;48.286;8.484;2022-08-18T02:06:10;10.88;;;9.77;;
39738;SDS011;25422;48.286;8.484;2022-08-18T02:08:37;11.55;;;10.35;;
39738;SDS011;25422;48.286;8.484;2022-08-18T02:11:03;11.85;;;10.25;;
39738;SDS011;25422;48.286;8.484;2022-08-18T02:13:30;11.15;;;10.05;;
39738;SDS011;25422;48.286;8.484;2022-08-18T02:15:56;11.30;;;10.20;;
39738;SDS011;25422;48.286;8.484;2022-08-18T02:18:27;11.02;;;9.93;;
39738;SDS011;25422;48.286;8.484;2022-08-18T02:20:55;11.45;;;10.25;;
39738;SDS011;25422;48.286;8.484;2022-08-18T02:23:22;11.70;;;10.07;;
39738;SDS011;25422;48.286;8.484;2022-08-18T02:25:49;11.25;;;9.80;;
39738;SDS011;25422;48.286;8.484;2022-08-18T02:28:14;12.85;;;10.15;;
39738;SDS011;25422;48.286;8.484;2022-08-18T02:30:40;11.45;;;10.30;;
39738;SDS011;25422;48.286;8.484;2022-08-18T02:33:06;11.15;;;10.00;;
39738;SDS011;25422;48.286;8.484;2022-08-18T02:35:33;11.38;;;10.02;;
39738;SDS011;25422;48.286;8.484;2022-08-18T02:37:59;12.60;;;10.40;;
39738;SDS011;25422;48.286;8.484;2022-08-18T02:40:28;11.85;;;10.50;;
39738;SDS011;25422;48.286;8.484;2022-08-18T02:42:54;10.27;;;9.00;;
39738;SDS011;25422;48.286;8.484;2022-08-18T02:45:20;9.52;;;8.48;;
39738;SDS011;25422;48.286;8.484;2022-08-18T02:47:53;13.02;;;9.65;;
39738;SDS011;25422;48.286;8.484;2022-08-18T02:50:20;10.38;;;9.38;;
39738;SDS011;25422;48.286;8.484;2022-08-18T02:52:46;13.80;;;10.05;;
39738;SDS011;25422;48.286;8.484;2022-08-18T02:55:12;10.80;;;9.23;;
39738;SDS011;25422;48.286;8.484;2022-08-18T02:57:45;10.18;;;9.18;;
39738;SDS011;25422;48.286;8.484;2022-08-18T03:00:12;10.27;;;9.27;;
39738;SDS011;25422;48.286;8.484;2022-08-18T03:02:40;9.35;;;8.32;;
39738;SDS011;25422;48.286;8.484;2022-08-18T03:05:10;12.07;;;9.45;;
39738;SDS011;25422;48.286;8.484;2022-08-18T03:07:35;10.18;;;9.18;;
39738;SDS011;25422;48.286;8.484;2022-08-18T03:10:00;10.35;;;9.30;;
39738;SDS011;25422;48.286;8.484;2022-08-18T03:12:26;12.32;;;9.52;;
39738;SDS011;25422;48.286;8.484;2022-08-18T03:14:51;9.52;;;8.63;;
39738;SDS011;25422;48.286;8.484;2022-08-18T03:17:17;13.15;;;9.20;;
39738;SDS011;25422;48.286;8.484;2022-08-18T03:19:42;10.68;;;9.57;;
39738;SDS011;25422;48.286;8.484;2022-08-18T03:22:10;13.85;;;9.70;;
39738;SDS011;25422;48.286;8.484;2022-08-18T03:24:36;10.85;;;9.07;;
39738;SDS011;25422;48.286;8.484;2022-08-18T03:27:05;10.38;;;9.18;;
39738;SDS011;25422;48.286;8.484;2022-08-18T03:29:31;12.07;;;9.18;;
39738;SDS011;25422;48.286;8.484;2022-08-18T03:31:59;10.32;;;8.80;;
39738;SDS011;25422;48.286;8.484;2022-08-18T03:34:28;11.27;;;10.10;;
39738;SDS011;25422;48.286;8.484;2022-08-18T03:36:54;9.90;;;8.90;;
39738;SDS011;25422;48.286;8.484;2022-08-18T03:39:19;12.88;;;9.60;;
39738;SDS011;25422;48.286;8.484;2022-08-18T03:41:47;11.55;;;9.45;;
39738;SDS011;25422;48.286;8.484;2022-08-18T03:44:14;10.40;;;9.40;;
39738;SDS011;25422;48.286;8.484;2022-08-18T03:46:40;9.80;;;8.85;;
39738;SDS011;25422;48.286;8.484;2022-08-18T03:49:07;11.02;;;8.90;;
39738;SDS011;25422;48.286;8.484;2022-08-18T03:51:33;9.50;;;8.60;;
39738;SDS011;25422;48.286;8.484;2022-08-18T03:54:00;10.43;;;8.23;;
39738;SDS011;25422;48.286;8.484;2022-08-18T03:56:28;10.27;;;8.48;;
39738;SDS011;25422;48.286;8.484;2022-08-18T03:58:58;10.68;;;8.45;;
39738;SDS011;25422;48.286;8.484;2022-08-18T04:01:27;9.40;;;8.23;;
39738;SDS011;25422;48.286;8.484;2022-08-18T04:03:57;9.73;;;8.32;;
39738;SDS011;25422;48.286;8.484;2022-08-18T04:06:27;9.45;;;8.35;;
39738;SDS011;25422;48.286;8.484;2022-08-18T04:08:56;9.32;;;7.80;;
39738;SDS011;25422;48.286;8.484;2022-08-18T04:11:24;9.43;;;8.53;;
39738;SDS011;25422;48.286;8.484;2022-08-18T04:13:50;9.43;;;8.38;;
39738;SDS011;25422;48.286;8.484;2022-08-18T04:16:15;9.02;;;8.13;;
39738;SDS011;25422;48.286;8.484;2022-08-18T04:18:41;11.15;;;9.13;;
39738;SDS011;25422;48.286;8.484;2022-08-18T04:21:08;9.30;;;8.30;;
39738;SDS011;25422;48.286;8.484;2022-08-18T04:23:36;9.23;;;8.13;;
39738;SDS011;25422;48.286;8.484;2022-08-18T04:26:03;11.80;;;9.15;;
39738;SDS011;25422;48.286;8.484;2022-08-18T04:28:30;11.40;;;9.23;;
39738;SDS011;25422;48.286;8.484;2022-08-18T04:30:56;9.20;;;8.30;;
39738;SDS011;25422;48.286;8.484;2022-08-18T04:33:26;10.02;;;9.02;;
39738;SDS011;25422;48.286;8.484;2022-08-18T04:35:53;9.00;;;8.15;;
39738;SDS011;25422;48.286;8.484;2022-08-18T04:38:19;9.05;;;8.15;;
39738;SDS011;25422;48.286;8.484;2022-08-18T04:40:45;9.63;;;8.63;;
39738;SDS011;25422;48.286;8.484;2022-08-18T04:43:11;11.07;;;8.73;;
39738;SDS011;25422;48.286;8.484;2022-08-18T04:45:43;9.52;;;8.55;;
39738;SDS011;25422;48.286;8.484;2022-08-18T04:48:09;9.68;;;8.50;;
39738;SDS011;25422;48.286;8.484;2022-08-18T04:50:36;9.57;;;8.38;;
39738;SDS011;25422;48.286;8.484;2022-08-18T04:53:03;8.88;;;7.97;;
39738;SDS011;25422;48.286;8.484;2022-08-18T04:55:47;8.77;;;7.97;;
39738;SDS011;25422;48.286;8.484;2022-08-18T04:58:15;8.55;;;7.75;;
39738;SDS011;25422;48.286;8.484;2022-08-18T05:00:43;8.75;;;7.90;;
39738;SDS011;25422;48.286;8.484;2022-08-18T05:03:09;9.68;;;8.25;;
39738;SDS011;25422;48.286;8.484;2022-08-18T05:05:36;9.32;;;8.27;;
39738;SDS011;25422;48.286;8.484;2022-08-18T05:08:01;9.23;;;8.32;;
39738;SDS011;25422;48.286;8.484;2022-08-18T05:10:27;8.65;;;7.85;;
39738;SDS011;25422;48.286;8.484;2022-08-18T05:12:53;9.50;;;8.07;;
39738;SDS011;25422;48.286;8.484;2022-08-18T05:15:19;10.95;;;8.30;;
39738;SDS011;25422;48.286;8.484;2022-08-18T05:17:45;8.80;;;7.70;;
39738;SDS011;25422;48.286;8.484;2022-08-18T05:20:11;9.73;;;7.90;;
39738;SDS011;25422;48.286;8.484;2022-08-18T05:22:38;11.30;;;8.90;;
39738;SDS011;25422;48.286;8.484;2022-08-18T05:25:05;10.25;;;9.13;;
39738;SDS011;25422;48.286;8.484;2022-08-18T05:27:33;10.95;;;8.48;;
39738;SDS011;25422;48.286;8.484;2022-08-18T05:30:00;10.25;;;9.18;;
39738;SDS011;25422;48.286;8.484;2022-08-18T05:32:26;10.35;;;9.25;;
39738;SDS011;25422;48.286;8.484;2022-08-18T05:34:55;10.18;;;9.18;;
39738;SDS011;25422;48.286;8.484;2022-08-18T05:37:30;11.18;;;10.07;;
39738;SDS011;25422;48.286;8.484;2022-08-18T05:40:04;11.43;;;10.23;;
39738;SDS011;25422;48.286;8.484;2022-08-18T05:42:35;11.30;;;10.20;;
39738;SDS011;25422;48.286;8.484;2022-08-18T05:45:05;11.57;;;10.38;;
39738;SDS011;25422;48.286;8.484;2022-08-18T05:47:35;11.32;;;10.10;;
39738;SDS011;25422;48.286;8.484;2022-08-18T05:50:04;10.65;;;9.60;;
39738;SDS011;25422;48.286;8.484;2022-08-18T05:55:53;10.27;;;9.25;;
39738;SDS011;25422;48.286;8.484;2022-08-18T05:58:32;10.50;;;9.50;;
39738;SDS011;25422;48.286;8.484;2022-08-18T06:01:06;10.95;;;9.85;;
39738;SDS011;25422;48.286;8.484;2022-08-18T06:03:42;10.52;;;9.52;;
39738;SDS011;25422;48.286;8.484;2022-08-18T06:06:22;11.32;;;8.80;;
39738;SDS011;25422;48.286;8.484;2022-08-18T06:09:07;10.05;;;9.05;;
39738;SDS011;25422;48.286;8.484;2022-08-18T06:11:38;10.10;;;9.18;;
39738;SDS011;25422;48.286;8.484;2022-08-18T06:14:04;10.07;;;8.88;;
39738;SDS011;25422;48.286;8.484;2022-08-18T06:30:07;9.60;;;8.60;;
39738;SDS011;25422;48.286;8.484;2022-08-18T06:32:55;9.85;;;8.93;;
39738;SDS011;25422;48.286;8.484;2022-08-18T06:35:50;11.07;;;8.80;;
39738;SDS011;25422;48.286;8.484;2022-08-18T06:41:10;9.23;;;8.18;;
39738;SDS011;25422;48.286;8.484;2022-08-18T06:43:58;9.75;;;7.88;;
39738;SDS011;25422;48.286;8.484;2022-08-18T06:49:11;7.72;;;6.82;;
39738;SDS011;25422;48.286;8.484;2022-08-18T06:51:45;7.70;;;6.90;;
39738;SDS011;25422;48.286;8.484;2022-08-18T06:56:47;7.78;;;7.03;;
39738;SDS011;25422;48.286;8.484;2022-08-18T06:59:25;7.78;;;6.97;;
39738;SDS011;25422;48.286;8.484;2022-08-18T07:01:58;7.65;;;6.95;;
39738;SDS011;25422;48.286;8.484;2022-08-18T07:04:30;8.00;;;7.20;;
39738;SDS011;25422;48.286;8.484;2022-08-18T07:06:57;9.70;;;6.65;;
39738;SDS011;25422;48.286;8.484;2022-08-18T07:09:24;9.68;;;6.72;;
39738;SDS011;25422;48.286;8.484;2022-08-18T07:12:01;7.30;;;6.55;;
39738;SDS011;25422;48.286;8.484;2022-08-18T07:14:31;8.07;;;7.28;;
39738;SDS011;25422;48.286;8.484;2022-08-18T07:17:10;7.72;;;7.03;;
39738;SDS011;25422;48.286;8.484;2022-08-18T07:19:38;7.68;;;6.90;;
39738;SDS011;25422;48.286;8.484;2022-08-18T07:24:40;11.30;;;6.68;;
39738;SDS011;25422;48.286;8.484;2022-08-18T07:27:10;8.23;;;6.68;;
39738;SDS011;25422;48.286;8.484;2022-08-18T07:29:40;6.55;;;5.88;;
39738;SDS011;25422;48.286;8.484;2022-08-18T07:32:25;8.80;;;5.45;;
39738;SDS011;25422;48.286;8.484;2022-08-18T07:34:56;13.10;;;6.03;;
39738;SDS011;25422;48.286;8.484;2022-08-18T07:37:39;5.93;;;5.18;;
39738;SDS011;25422;48.286;8.484;2022-08-18T07:43:04;6.20;;;5.60;;
39738;SDS011;25422;48.286;8.484;2022-08-18T07:45:37;5.22;;;4.70;;
39738;SDS011;25422;48.286;8.484;2022-08-18T07:50:47;5.95;;;5.25;;
39738;SDS011;25422;48.286;8.484;2022-08-18T07:53:31;6.32;;;5.75;;
39738;SDS011;25422;48.286;8.484;2022-08-18T07:56:51;5.53;;;5.03;;
39738;SDS011;25422;48.286;8.484;2022-08-18T08:01:51;6.15;;;4.97;;
39738;SDS011;25422;48.286;8.484;2022-08-18T08:07:11;4.95;;;4.45;;
39738;SDS011;25422;48.286;8.484;2022-08-18T08:09:52;5.45;;;4.63;;
39738;SDS011;25422;48.286;8.484;2022-08-18T08:15:46;5.07;;;4.35;;
39738;SDS011;25422;48.286;8.484;2022-08-18T08:21:10;4.63;;;4.15;;
39738;SDS011;25422;48.286;8.484;2022-08-18T08:23:43;4.70;;;4.18;;
39738;SDS011;25422;48.286;8.484;2022-08-18T08:26:41;3.92;;;3.60;;
39738;SDS011;25422;48.286;8.484;2022-08-18T08:29:38;4.57;;;4.00;;
39738;SDS011;25422;48.286;8.484;2022-08-18T08:32:30;4.20;;;3.78;;
39738;SDS011;25422;48.286;8.484;2022-08-18T08:35:01;4.50;;;3.90;;
39738;SDS011;25422;48.286;8.484;2022-08-18T08:37:39;4.75;;;3.70;;
39738;SDS011;25422;48.286;8.484;2022-08-18T08:40:15;4.45;;;3.63;;
39738;SDS011;25422;48.286;8.484;2022-08-18T08:45:20;4.13;;;3.75;;
39738;SDS011;25422;48.286;8.484;2022-08-18T08:48:01;3.83;;;3.47;;
39738;SDS011;25422;48.286;8.484;2022-08-18T08:50:33;4.30;;;4.00;;
39738;SDS011;25422;48.286;8.484;2022-08-18T08:53:10;6.10;;;3.85;;
39738;SDS011;25422;48.286;8.484;2022-08-18T08:55:45;4.57;;;4.18;;
39738;SDS011;25422;48.286;8.484;2022-08-18T08:58:25;4.03;;;3.63;;
39738;SDS011;25422;48.286;8.484;2022-08-18T09:00:58;4.68;;;4.28;;
39738;SDS011;25422;48.286;8.484;2022-08-18T09:03:27;5.45;;;4.15;;
39738;SDS011;25422;48.286;8.484;2022-08-18T09:08:48;5.63;;;4.45;;
39738;SDS011;25422;48.286;8.484;2022-08-18T09:17:33;5.10;;;4.57;;
39738;SDS011;25422;48.286;8.484;2022-08-18T09:20:09;5.95;;;4.78;;
39738;SDS011;25422;48.286;8.484;2022-08-18T09:22:46;4.50;;;4.10;;
39738;SDS011;25422;48.286;8.484;2022-08-18T09:25:33;5.20;;;4.70;;
39738;SDS011;25422;48.286;8.484;2022-08-18T09:28:12;4.97;;;4.47;;
39738;SDS011;25422;48.286;8.484;2022-08-18T09:33:30;5.65;;;3.97;;
39738;SDS011;25422;48.286;8.484;2022-08-18T09:36:32;6.15;;;4.22;;
39738;SDS011;25422;48.286;8.484;2022-08-18T09:42:16;4.88;;;4.10;;
39738;SDS011;25422;48.286;8.484;2022-08-18T09:45:01;5.15;;;4.65;;
39738;SDS011;25422;48.286;8.484;2022-08-18T09:57:31;5.60;;;4.40;;
39738;SDS011;25422;48.286;8.484;2022-08-18T10:07:47;5.68;;;5.00;;
39738;SDS011;25422;48.286;8.484;2022-08-18T10:10:52;7.45;;;4.97;;
39738;SDS011;25422;48.286;8.484;2022-08-18T10:21:25;5.95;;;4.35;;
39738;SDS011;25422;48.286;8.484;2022-08-18T10:31:22;5.50;;;4.90;;
39738;SDS011;25422;48.286;8.484;2022-08-18T10:34:05;7.50;;;5.30;;
39738;SDS011;25422;48.286;8.484;2022-08-18T10:39:20;6.55;;;5.10;;
39738;SDS011;25422;48.286;8.484;2022-08-18T10:45:05;6.43;;;5.45;;
39738;SDS011;25422;48.286;8.484;2022-08-18T10:47:35;7.32;;;5.93;;
39738;SDS011;25422;48.286;8.484;2022-08-18T10:50:07;7.93;;;5.38;;
39738;SDS011;25422;48.286;8.484;2022-08-18T10:58:52;5.22;;;4.72;;
39738;SDS011;25422;48.286;8.484;2022-08-18T11:02:21;6.18;;;5.57;;
39738;SDS011;25422;48.286;8.484;2022-08-18T11:04:30;5.43;;;4.80;;
39738;SDS011;25422;48.286;8.484;2022-08-18T11:07:20;5.18;;;4.78;;
39738;SDS011;25422;48.286;8.484;2022-08-18T11:09:48;5.55;;;5.05;;
39738;SDS011;25422;48.286;8.484;2022-08-18T11:20:45;6.10;;;5.47;;
39738;SDS011;25422;48.286;8.484;2022-08-18T11:23:13;6.28;;;5.45;;
39738;SDS011;25422;48.286;8.484;2022-08-18T11:25:41;5.95;;;5.40;;
39738;SDS011;25422;48.286;8.484;2022-08-18T11:28:19;6.68;;;6.07;;
39738;SDS011;25422;48.286;8.484;2022-08-18T11:30:48;8.02;;;5.50;;
39738;SDS011;25422;48.286;8.484;2022-08-18T11:33:18;5.63;;;4.88;;
39738;SDS011;25422;48.286;8.484;2022-08-18T11:35:49;6.88;;;5.03;;
39738;SDS011;25422;48.286;8.484;2022-08-18T11:38:18;5.63;;;5.03;;
39738;SDS011;25422;48.286;8.484;2022-08-18T11:40:45;7.07;;;4.85;;
39738;SDS011;25422;48.286;8.484;2022-08-18T11:43:17;5.85;;;5.25;;
39738;SDS011;25422;48.286;8.484;2022-08-18T11:45:53;6.30;;;5.57;;
39738;SDS011;25422;48.286;8.484;2022-08-18T11:51:18;6.93;;;6.22;;
39738;SDS011;25422;48.286;8.484;2022-08-18T12:11:55;8.82;;;5.50;;
39738;SDS011;25422;48.286;8.484;2022-08-18T12:14:31;8.98;;;5.82;;
39738;SDS011;25422;48.286;8.484;2022-08-18T12:16:58;6.90;;;6.20;;
39738;SDS011;25422;48.286;8.484;2022-08-18T12:19:24;8.23;;;5.68;;
39738;SDS011;25422;48.286;8.484;2022-08-18T12:21:57;6.68;;;6.07;;
39738;SDS011;25422;48.286;8.484;2022-08-18T12:24:26;7.03;;;5.78;;
39738;SDS011;25422;48.286;8.484;2022-08-18T12:26:53;6.35;;;5.75;;
39738;SDS011;25422;48.286;8.484;2022-08-18T12:29:19;5.60;;;5.10;;
39738;SDS011;25422;48.286;8.484;2022-08-18T12:31:46;6.15;;;5.55;;
39738;SDS011;25422;48.286;8.484;2022-08-18T12:34:21;6.50;;;5.75;;
39738;SDS011;25422;48.286;8.484;2022-08-18T12:36:52;10.10;;;5.35;;
39738;SDS011;25422;48.286;8.484;2022-08-18T12:39:20;5.93;;;5.32;;
39738;SDS011;25422;48.286;8.484;2022-08-18T12:41:45;7.90;;;5.38;;
39738;SDS011;25422;48.286;8.484;2022-08-18T12:44:11;9.00;;;4.90;;
39738;SDS011;25422;48.286;8.484;2022-08-18T12:46:37;5.10;;;4.60;;
39738;SDS011;25422;48.286;8.484;2022-08-18T12:49:03;5.55;;;5.05;;
39738;SDS011;25422;48.286;8.484;2022-08-18T12:51:30;6.95;;;5.47;;
39738;SDS011;25422;48.286;8.484;2022-08-18T12:53:55;5.80;;;5.20;;
39738;SDS011;25422;48.286;8.484;2022-08-18T12:56:22;6.00;;;4.93;;
39738;SDS011;25422;48.286;8.484;2022-08-18T12:58:54;12.30;;;6.43;;
39738;SDS011;25422;48.286;8.484;2022-08-18T13:01:21;9.95;;;7.03;;
39738;SDS011;25422;48.286;8.484;2022-08-18T13:03:49;7.35;;;6.28;;
39738;SDS011;25422;48.286;8.484;2022-08-18T13:06:20;8.15;;;6.50;;
39738;SDS011;25422;48.286;8.484;2022-08-18T13:08:47;9.15;;;6.72;;
39738;SDS011;25422;48.286;8.484;2022-08-18T13:11:14;8.45;;;7.07;;
39738;SDS011;25422;48.286;8.484;2022-08-18T13:13:40;8.25;;;7.18;;
39738;SDS011;25422;48.286;8.484;2022-08-18T13:16:06;7.70;;;6.88;;
39738;SDS011;25422;48.286;8.484;2022-08-18T13:18:33;8.48;;;7.43;;
39738;SDS011;25422;48.286;8.484;2022-08-18T13:20:59;11.05;;;7.13;;
39738;SDS011;25422;48.286;8.484;2022-08-18T13:23:27;10.65;;;7.57;;
39738;SDS011;25422;48.286;8.484;2022-08-18T13:25:53;8.98;;;8.07;;
39738;SDS011;25422;48.286;8.484;2022-08-18T13:28:19;8.73;;;7.88;;
39738;SDS011;25422;48.286;8.484;2022-08-18T13:30:45;9.77;;;8.77;;
39738;SDS011;25422;48.286;8.484;2022-08-18T13:33:10;8.95;;;8.05;;
39738;SDS011;25422;48.286;8.484;2022-08-18T13:35:36;9.65;;;8.63;;
39738;SDS011;25422;48.286;8.484;2022-08-18T13:38:02;9.75;;;8.70;;
39738;SDS011;25422;48.286;8.484;2022-08-18T13:40:31;10.45;;;8.88;;
39738;SDS011;25422;48.286;8.484;2022-08-18T13:42:57;9.57;;;8.57;;
39738;SDS011;25422;48.286;8.484;2022-08-18T13:45:22;10.13;;;9.10;;
39738;SDS011;25422;48.286;8.484;2022-08-18T13:47:48;11.52;;;8.68;;
39738;SDS011;25422;48.286;8.484;2022-08-18T13:50:17;10.27;;;9.18;;
39738;SDS011;25422;48.286;8.484;2022-08-18T13:52:42;9.73;;;8.82;;
39738;SDS011;25422;48.286;8.484;2022-08-18T13:55:10;13.00;;;8.63;;
39738;SDS011;25422;48.286;8.484;2022-08-18T13:57:38;11.27;;;9.52;;
39738;SDS011;25422;48.286;8.484;2022-08-18T14:00:06;10.20;;;9.07;;
39738;SDS011;25422;48.286;8.484;2022-08-18T14:02:36;10.32;;;8.75;;
39738;SDS011;25422;48.286;8.484;2022-08-18T14:05:02;10.85;;;9.10;;
39738;SDS011;25422;48.286;8.484;2022-08-18T14:07:28;10.10;;;9.00;;
39738;SDS011;25422;48.286;8.484;2022-08-18T14:09:53;11.90;;;9.20;;
39738;SDS011;25422;48.286;8.484;2022-08-18T14:12:19;9.75;;;8.80;;
39738;SDS011;25422;48.286;8.484;2022-08-18T14:14:46;9.95;;;8.88;;
39738;SDS011;25422;48.286;8.484;2022-08-18T14:17:12;9.75;;;8.68;;
39738;SDS011;25422;48.286;8.484;2022-08-18T14:19:38;10.50;;;8.88;;
39738;SDS011;25422;48.286;8.484;2022-08-18T14:22:22;9.40;;;8.48;;
39738;SDS011;25422;48.286;8.484;2022-08-18T14:25:06;10.45;;;8.60;;
39738;SDS011;25422;48.286;8.484;2022-08-18T14:27:51;11.18;;;8.43;;
39738;SDS011;25422;48.286;8.484;2022-08-18T14:30:16;11.40;;;8.77;;
39738;SDS011;25422;48.286;8.484;2022-08-18T14:32:43;11.90;;;9.50;;
39738;SDS011;25422;48.286;8.484;2022-08-18T14:35:11;10.52;;;8.50;;
39738;SDS011;25422;48.286;8.484;2022-08-18T14:37:40;11.82;;;8.50;;
39738;SDS011;25422;48.286;8.484;2022-08-18T14:40:06;9.82;;;8.73;;
39738;SDS011;25422;48.286;8.484;2022-08-18T14:42:32;9.80;;;8.77;;
39738;SDS011;25422;48.286;8.484;2022-08-18T14:44:58;9.38;;;8.48;;
39738;SDS011;25422;48.286;8.484;2022-08-18T14:47:24;10.07;;;8.10;;
39738;SDS011;25422;48.286;8.484;2022-08-18T14:49:53;12.00;;;8.88;;
39738;SDS011;25422;48.286;8.484;2022-08-18T14:52:21;13.05;;;8.32;;
39738;SDS011;25422;48.286;8.484;2022-08-18T14:54:48;10.02;;;8.63;;
39738;SDS011;25422;48.286;8.484;2022-08-18T14:57:14;10.80;;;8.48;;
39738;SDS011;25422;48.286;8.484;2022-08-18T14:59:40;9.43;;;7.93;;
39738;SDS011;25422;48.286;8.484;2022-08-18T15:02:07;10.32;;;8.98;;
39738;SDS011;25422;48.286;8.484;2022-08-18T15:04:35;9.30;;;8.35;;
39738;SDS011;25422;48.286;8.484;2022-08-18T15:07:00;9.90;;;8.57;;
39738;SDS011;25422;48.286;8.484;2022-08-18T15:09:27;10.25;;;8.68;;
39738;SDS011;25422;48.286;8.484;2022-08-18T15:11:54;8.90;;;8.00;;
39738;SDS011;25422;48.286;8.484;2022-08-18T15:14:23;9.63;;;8.48;;
39738;SDS011;25422;48.286;8.484;2022-08-18T15:16:50;9.05;;;8.15;;
39738;SDS011;25422;48.286;8.484;2022-08-18T15:19:16;9.18;;;8.18;;
39738;SDS011;25422;48.286;8.484;2022-08-18T15:21:42;10.07;;;9.07;;
39738;SDS011;25422;48.286;8.484;2022-08-18T15:24:26;11.45;;;9.40;;
39738;SDS011;25422;48.286;8.484;2022-08-18T15:27:10;9.82;;;8.90;;
39738;SDS011;25422;48.286;8.484;2022-08-18T15:29:36;10.13;;;9.13;;
39738;SDS011;25422;48.286;8.484;2022-08-18T15:32:01;9.70;;;8.80;;
39738;SDS011;25422;48.286;8.484;2022-08-18T15:34:28;12.88;;;9.75;;
39738;SDS011;25422;48.286;8.484;2022-08-18T15:36:54;12.15;;;10.10;;
39738;SDS011;25422;48.286;8.484;2022-08-18T15:39:21;12.05;;;10.18;;
39738;SDS011;25422;48.286;8.484;2022-08-18T15:41:47;11.32;;;10.18;;
39738;SDS011;25422;48.286;8.484;2022-08-18T15:44:16;10.65;;;9.63;;
39738;SDS011;25422;48.286;8.484;2022-08-18T15:46:43;10.57;;;9.48;;
39738;SDS011;25422;48.286;8.484;2022-08-18T15:49:09;11.73;;;10.55;;
39738;SDS011;25422;48.286;8.484;2022-08-18T15:51:36;11.40;;;10.30;;
39738;SDS011;25422;48.286;8.484;2022-08-18T15:54:03;11.63;;;10.52;;
39738;SDS011;25422;48.286;8.484;2022-08-18T15:56:30;11.75;;;10.10;;
39738;SDS011;25422;48.286;8.484;2022-08-18T15:58:56;10.50;;;9.52;;
39738;SDS011;25422;48.286;8.484;2022-08-18T16:01:23;10.73;;;9.73;;
39738;SDS011;25422;48.286;8.484;2022-08-18T16:03:50;12.02;;;10.02;;
39738;SDS011;25422;48.286;8.484;2022-08-18T16:06:21;10.77;;;9.68;;
39738;SDS011;25422;48.286;8.484;2022-08-18T16:08:52;11.63;;;10.52;;
39738;SDS011;25422;48.286;8.484;2022-08-18T16:11:18;11.02;;;9.68;;
39738;SDS011;25422;48.286;8.484;2022-08-18T16:13:44;12.13;;;10.88;;
39738;SDS011;25422;48.286;8.484;2022-08-18T16:16:15;11.43;;;10.32;;
39738;SDS011;25422;48.286;8.484;2022-08-18T16:18:45;12.98;;;10.70;;
39738;SDS011;25422;48.286;8.484;2022-08-18T16:21:14;11.55;;;10.40;;
39738;SDS011;25422;48.286;8.484;2022-08-18T16:23:42;11.73;;;10.57;;
39738;SDS011;25422;48.286;8.484;2022-08-18T16:26:10;11.93;;;10.73;;
39738;SDS011;25422;48.286;8.484;2022-08-18T16:31:05;14.02;;;12.10;;
39738;SDS011;25422;48.286;8.484;2022-08-18T16:33:31;14.68;;;13.02;;
39738;SDS011;25422;48.286;8.484;2022-08-18T16:36:01;15.05;;;13.50;;
39738;SDS011;25422;48.286;8.484;2022-08-18T16:38:31;15.15;;;13.70;;
39738;SDS011;25422;48.286;8.484;2022-08-18T16:41:07;16.88;;;15.27;;
39738;SDS011;25422;48.286;8.484;2022-08-18T16:43:35;20.85;;;17.48;;
39738;SDS011;25422;48.286;8.484;2022-08-18T16:46:02;24.52;;;18.23;;
39738;SDS011;25422;48.286;8.484;2022-08-18T16:48:29;28.10;;;18.92;;
39738;SDS011;25422;48.286;8.484;2022-08-18T16:50:56;21.58;;;19.27;;
39738;SDS011;25422;48.286;8.484;2022-08-18T16:53:22;25.52;;;20.35;;
39738;SDS011;25422;48.286;8.484;2022-08-18T16:55:48;28.15;;;22.02;;
39738;SDS011;25422;48.286;8.484;2022-08-18T16:58:13;25.85;;;23.08;;
39738;SDS011;25422;48.286;8.484;2022-08-18T17:00:58;27.13;;;23.63;;
39738;SDS011;25422;48.286;8.484;2022-08-18T17:03:42;26.60;;;22.40;;
39738;SDS011;25422;48.286;8.484;2022-08-18T17:06:26;26.08;;;23.27;;
39738;SDS011;25422;48.286;8.484;2022-08-18T17:08:53;27.48;;;23.25;;
39738;SDS011;25422;48.286;8.484;2022-08-18T17:11:19;26.45;;;23.40;;
39738;SDS011;25422;48.286;8.484;2022-08-18T17:13:46;26.23;;;22.70;;
39738;SDS011;25422;48.286;8.484;2022-08-18T17:16:14;27.63;;;24.63;;
39738;SDS011;25422;48.286;8.484;2022-08-18T17:18:45;29.92;;;26.58;;